Time;durP1;ratioP1;P1;durP2;ratioP2;P2;SDS_P1;SDS_P2;PMS_P1;PMS_P2;Temp;Humidity;BMP_temperature;BMP_pressure;BME280_temperature;BME280_humidity;BME280_pressure;Samples;Min_cycle;Max_cycle;Signal;HPM_P1;HPM_P2
2023/02/09 00:02:12;;;;;;;34.90;19.60;;;;;;;-6.98;68.44;102436.86;105517;1259;72651;-76
2023/02/09 00:04:41;;;;;;;37.80;21.60;;;;;;;-7.03;68.60;102438.38;105856;1257;70326;-75
2023/02/09 00:07:09;;;;;;;40.30;20.30;;;;;;;-7.08;68.59;102439.54;106409;1260;73922;-77
2023/02/09 00:09:38;;;;;;;35.00;17.10;;;;;;;-7.14;68.52;102434.16;105629;1254;60577;-74
2023/02/09 00:14:52;;;;;;;31.40;15.50;;;;;;;-7.00;68.65;102434.08;106203;1257;73806;-73
2023/02/09 00:17:21;;;;;;;33.70;15.20;;;;;;;-6.89;68.55;102424.48;105760;1255;71552;-76
2023/02/09 00:19:49;;;;;;;32.00;15.50;;;;;;;-6.84;68.77;102419.36;107322;1259;72616;-75
2023/02/09 00:22:17;;;;;;;30.70;16.60;;;;;;;-6.86;68.70;102414.86;107850;1254;59296;-76
2023/02/09 00:24:45;;;;;;;33.00;16.70;;;;;;;-6.87;68.49;102412.62;105709;1259;60445;-77
2023/02/09 00:27:13;;;;;;;29.30;16.80;;;;;;;-6.90;68.54;102409.85;105675;1256;71829;-75
2023/02/09 00:29:42;;;;;;;26.30;15.00;;;;;;;-6.92;68.70;102408.46;105374;1254;69436;-77
2023/02/09 00:32:10;;;;;;;27.60;15.60;;;;;;;-6.95;68.65;102403.79;105646;1254;71533;-75
2023/02/09 00:34:40;;;;;;;31.00;16.20;;;;;;;-6.99;68.93;102408.77;105566;1253;60540;-75
2023/02/09 00:37:09;;;;;;;27.80;15.10;;;;;;;-7.03;68.80;102408.91;105691;1257;61164;-75
2023/02/09 00:39:38;;;;;;;35.50;16.10;;;;;;;-7.08;68.86;102404.90;105534;1255;73277;-75
2023/02/09 00:42:06;;;;;;;24.80;13.50;;;;;;;-7.00;68.63;102408.08;105754;1254;70837;-73
2023/02/09 00:44:38;;;;;;;21.60;11.80;;;;;;;-6.86;68.76;102401.08;105904;1256;73915;-74
2023/02/09 00:47:07;;;;;;;31.20;14.90;;;;;;;-6.75;68.70;102397.69;106095;1257;60407;-74
2023/02/09 00:49:36;;;;;;;29.50;14.80;;;;;;;-6.71;68.69;102399.27;105783;1254;60454;-75
2023/02/09 00:52:04;;;;;;;31.20;15.00;;;;;;;-6.73;68.94;102401.66;105709;1256;72182;-75
2023/02/09 00:54:32;;;;;;;27.20;14.60;;;;;;;-6.76;68.98;102397.34;105901;1253;71270;-74
2023/02/09 00:57:04;;;;;;;26.00;14.30;;;;;;;-6.78;68.89;102394.92;106060;1254;73556;-76
2023/02/09 00:59:34;;;;;;;28.70;15.60;;;;;;;-6.82;69.07;102395.41;106523;1254;61382;-75
2023/02/09 01:02:03;;;;;;;32.10;15.10;;;;;;;-6.86;68.95;102397.11;106010;1258;60418;-75
2023/02/09 01:04:33;;;;;;;28.30;14.00;;;;;;;-6.88;69.17;102396.77;106438;1257;72781;-74
2023/02/09 01:07:01;;;;;;;23.60;13.50;;;;;;;-6.90;69.15;102393.65;105926;1254;71211;-75
2023/02/09 01:09:31;;;;;;;18.80;11.00;;;;;;;-6.92;68.91;102388.12;105819;1257;70719;-75
2023/02/09 01:11:59;;;;;;;21.90;12.20;;;;;;;-6.92;69.17;102390.36;105891;1254;61312;-75
2023/02/09 01:14:27;;;;;;;23.70;10.50;;;;;;;-6.84;69.06;102388.33;106209;1254;60513;-76
2023/02/09 01:16:57;;;;;;;19.30;10.50;;;;;;;-6.67;68.68;102387.20;105582;1258;73604;-75
2023/02/09 01:19:26;;;;;;;20.90;11.00;;;;;;;-6.56;68.79;102382.42;105424;1254;69901;-73
2023/02/09 01:21:55;;;;;;;20.00;11.50;;;;;;;-6.55;68.93;102377.27;105688;1254;72580;-73
2023/02/09 01:24:23;;;;;;;20.70;10.80;;;;;;;-6.56;68.74;102378.13;105787;1254;60492;-73
2023/02/09 01:26:51;;;;;;;22.20;11.90;;;;;;;-6.57;68.75;102377.09;105808;1254;60888;-74
2023/02/09 01:29:19;;;;;;;25.50;13.80;;;;;;;-6.62;68.70;102380.85;105823;1255;74795;-75
2023/02/09 01:31:48;;;;;;;25.80;14.20;;;;;;;-6.68;68.71;102386.00;105647;1254;69924;-75
2023/02/09 01:34:18;;;;;;;23.90;13.60;;;;;;;-6.74;68.80;102385.64;105593;1257;72794;-74
2023/02/09 01:36:48;;;;;;;25.30;13.10;;;;;;;-6.81;68.89;102383.01;105647;1257;60435;-74
2023/02/09 01:39:16;;;;;;;24.30;13.40;;;;;;;-6.89;68.95;102380.05;105653;1254;61547;-74
2023/02/09 01:41:44;;;;;;;26.60;13.20;;;;;;;-6.96;69.02;102375.00;105642;1257;74019;-75
2023/02/09 01:44:15;;;;;;;24.00;12.40;;;;;;;-6.97;69.01;102375.53;105736;1254;70741;-74
2023/02/09 01:46:46;;;;;;;;;;;;;;;-6.87;69.15;102375.06;105921;1252;70975;-75
2023/02/09 01:49:19;;;;;;;23.40;13.00;;;;;;;-6.83;69.27;102367.48;106393;1254;60603;-74
2023/02/09 01:51:51;;;;;;;26.10;13.60;;;;;;;-6.86;69.08;102364.38;106452;1255;60452;-77
2023/02/09 01:54:22;;;;;;;26.20;13.40;;;;;;;-6.94;69.36;102363.30;105970;1259;75056;-74
2023/02/09 01:56:56;;;;;;;24.30;14.10;;;;;;;-6.99;69.53;102359.67;107136;1252;70634;-77
2023/02/09 01:59:24;;;;;;;25.10;13.50;;;;;;;-7.03;69.75;102360.33;107795;1253;73818;-76
2023/02/09 02:01:52;;;;;;;22.60;13.40;;;;;;;-7.06;69.84;102356.86;106570;1257;60461;-77
2023/02/09 02:04:20;;;;;;;27.80;14.20;;;;;;;-7.06;69.69;102357.21;105554;1254;60662;-75
2023/02/09 02:06:53;;;;;;;27.80;13.80;;;;;;;-7.05;69.79;102354.98;105861;1256;73832;-78
2023/02/09 02:09:21;;;;;;;23.10;11.60;;;;;;;-7.05;69.85;102348.61;105834;1256;68317;-75
2023/02/09 02:11:49;;;;;;;28.70;13.80;;;;;;;-7.06;69.90;102351.35;105889;1256;73865;-77
2023/02/09 02:14:32;;;;;;;26.80;13.20;;;;;;;-7.01;69.67;102352.07;105834;1253;61401;-75
2023/02/09 02:17:18;;;;;;;22.10;12.60;;;;;;;-6.83;69.56;102350.95;105632;1253;60550;-75
2023/02/09 02:20:05;;;;;;;22.00;12.40;;;;;;;-6.70;69.53;102348.06;105623;1254;72516;-77
2023/02/09 02:23:05;;;;;;;21.00;12.40;;;;;;;-6.69;69.60;102346.69;106013;1254;70495;-75
2023/02/09 02:25:58;;;;;;;23.80;13.20;;;;;;;-6.70;69.44;102351.86;106577;1254;70279;-77
2023/02/09 02:28:44;;;;;;;25.90;14.10;;;;;;;-6.73;69.31;102348.58;106113;1254;60544;-77
2023/02/09 02:31:28;;;;;;;27.40;14.90;;;;;;;-6.75;69.15;102348.56;105929;1257;61536;-73
2023/02/09 02:34:25;;;;;;;34.70;16.90;;;;;;;-6.82;68.66;102346.30;106668;1255;73826;-73
2023/02/09 02:37:08;;;;;;;30.80;17.20;;;;;;;-6.92;68.64;102342.81;106081;1257;69452;-74
2023/02/09 02:39:40;;;;;;;32.10;17.90;;;;;;;-7.00;68.81;102340.71;105605;1257;71854;-74
2023/02/09 02:42:47;;;;;;;36.00;15.80;;;;;;;-7.05;68.96;102339.30;105772;1257;61382;-75
2023/02/09 02:45:42;;;;;;;34.00;16.80;;;;;;;-6.98;68.84;102338.47;105786;1257;61567;-72
2023/02/09 02:48:13;;;;;;;26.90;14.00;;;;;;;-6.88;68.96;102340.23;105620;1257;72973;-77
2023/02/09 02:50:46;;;;;;;27.80;15.60;;;;;;;-6.84;68.97;102336.80;105754;1257;70618;-75
2023/02/09 02:53:14;;;;;;;27.40;15.70;;;;;;;-6.87;69.08;102331.46;105626;1253;73148;-76
2023/02/09 02:55:43;;;;;;;31.20;15.90;;;;;;;-6.92;69.10;102335.58;105587;1253;60782;-78
2023/02/09 02:58:12;;;;;;;30.90;16.10;;;;;;;-6.96;68.89;102334.53;105741;1257;60454;-77
2023/02/09 03:00:43;;;;;;;30.20;16.40;;;;;;;-7.00;69.09;102335.53;105851;1258;75226;-78
2023/02/09 03:03:20;;;;;;;27.10;15.70;;;;;;;-7.03;69.03;102337.08;106130;1254;71350;-77
2023/02/09 03:05:49;;;;;;;32.60;16.60;;;;;;;-7.05;69.23;102337.91;108666;1252;73820;-77
2023/02/09 03:08:17;;;;;;;32.30;17.70;;;;;;;-7.05;69.44;102330.69;106995;1257;60503;-73
2023/02/09 03:10:45;;;;;;;27.80;15.00;;;;;;;-7.06;69.13;102327.77;105923;1253;60545;-74
2023/02/09 03:13:33;;;;;;;31.20;16.10;;;;;;;-7.00;69.34;102325.55;105752;1254;73738;-77
2023/02/09 03:16:07;;;;;;;25.60;14.80;;;;;;;-6.83;69.26;102324.93;108308;1253;70381;-76
2023/02/09 03:19:09;;;;;;;30.00;15.60;;;;;;;-6.70;69.11;102321.70;106916;1254;71610;-78
2023/02/09 03:21:57;;;;;;;30.10;16.60;;;;;;;-6.68;68.98;102314.46;105866;1253;60451;-79
2023/02/09 03:24:37;;;;;;;31.10;19.00;;;;;;;-6.70;69.19;102306.35;105542;1257;61534;-78
2023/02/09 03:27:20;;;;;;;31.00;17.70;;;;;;;-6.75;69.22;102304.27;105484;1258;74553;-78
2023/02/09 03:29:53;;;;;;;33.90;20.00;;;;;;;-6.81;69.03;102304.60;105958;1257;68700;-79
2023/02/09 03:32:21;;;;;;;35.50;19.20;;;;;;;-6.87;69.21;102301.14;105653;1256;72789;-78
2023/02/09 03:34:51;;;;;;;32.80;18.90;;;;;;;-6.94;69.16;102303.52;105453;1255;60581;-78
2023/02/09 03:37:19;;;;;;;30.70;16.90;;;;;;;-7.01;69.42;102300.04;107133;1253;59851;-75
2023/02/09 03:39:48;;;;;;;30.70;17.60;;;;;;;-7.06;69.35;102303.13;107707;1253;74008;-78
2023/02/09 03:42:16;;;;;;;35.90;18.00;;;;;;;-6.98;69.44;102304.88;107916;1253;70210;-77
2023/02/09 03:44:44;;;;;;;33.00;17.10;;;;;;;-6.86;69.11;102308.02;105571;1253;73758;-76
2023/02/09 03:47:12;;;;;;;31.60;17.30;;;;;;;-6.80;69.34;102309.95;105663;1254;62092;-76
2023/02/09 03:49:40;;;;;;;32.50;19.00;;;;;;;-6.83;69.32;102306.30;105655;1257;60707;-75
2023/02/09 03:52:11;;;;;;;29.70;18.20;;;;;;;-6.92;69.29;102305.42;105660;1257;75085;-74
2023/02/09 03:54:39;;;;;;;41.40;19.70;;;;;;;-7.01;69.54;102303.48;105663;1259;68671;-73
2023/02/09 03:57:08;;;;;;;33.80;17.50;;;;;;;-7.09;69.90;102309.82;105515;1259;72447;-73
2023/02/09 03:59:37;;;;;;;35.00;18.70;;;;;;;-7.15;69.91;102310.14;105656;1253;60721;-73
2023/02/09 04:02:06;;;;;;;40.40;21.20;;;;;;;-7.20;70.11;102310.29;105878;1259;61231;-72
2023/02/09 04:04:34;;;;;;;33.60;18.50;;;;;;;-7.26;70.38;102306.46;106623;1253;75250;-78
2023/02/09 04:07:03;;;;;;;36.10;19.10;;;;;;;-7.32;70.87;102309.54;106300;1255;70808;-78
2023/02/09 04:09:33;;;;;;;30.00;17.20;;;;;;;-7.24;70.65;102313.88;106595;1259;71542;-80
2023/02/09 04:12:01;;;;;;;35.10;18.10;;;;;;;-7.13;70.69;102315.99;106362;1253;61759;-75
2023/02/09 04:14:30;;;;;;;30.70;17.60;;;;;;;-7.06;70.70;102317.94;107907;1253;59796;-75
2023/02/09 04:16:58;;;;;;;33.50;17.80;;;;;;;-7.08;70.92;102318.79;107091;1256;72790;-71
2023/02/09 04:19:27;;;;;;;30.30;17.20;;;;;;;-7.13;70.83;102317.89;106533;1254;69239;-74
2023/02/09 04:21:58;;;;;;;36.90;19.90;;;;;;;-7.23;70.54;102316.48;105865;1254;72240;-73
2023/02/09 04:24:28;;;;;;;39.20;20.20;;;;;;;-7.33;70.83;102315.20;105532;1254;61091;-74
2023/02/09 04:26:56;;;;;;;38.90;20.90;;;;;;;-7.45;70.90;102308.77;105485;1258;61002;-72
2023/02/09 04:29:25;;;;;;;38.40;20.40;;;;;;;-7.55;70.89;102301.48;105578;1253;74124;-73
2023/02/09 04:31:55;;;;;;;35.30;19.10;;;;;;;-7.61;71.13;102301.26;105669;1253;71251;-73
2023/02/09 04:34:23;;;;;;;35.20;17.40;;;;;;;-7.56;71.19;102297.16;105498;1253;73071;-71
2023/02/09 04:36:55;;;;;;;32.60;17.80;;;;;;;-7.49;71.29;102293.77;105617;1257;61077;-76
2023/02/09 04:39:23;;;;;;;32.00;17.30;;;;;;;-7.48;71.33;102291.52;105732;1258;60364;-76
2023/02/09 04:41:53;;;;;;;28.50;15.60;;;;;;;-7.48;71.54;102285.50;105541;1253;74207;-75
2023/02/09 04:44:22;;;;;;;32.10;17.00;;;;;;;-7.48;71.62;102286.54;105831;1253;71333;-73
2023/02/09 04:46:50;;;;;;;32.90;17.80;;;;;;;-7.50;71.85;102286.88;105995;1258;71542;-73
2023/02/09 04:49:18;;;;;;;33.40;18.60;;;;;;;-7.58;72.17;102293.02;105783;1254;60488;-74
2023/02/09 04:51:47;;;;;;;34.60;20.60;;;;;;;-7.69;71.91;102291.91;105609;1253;60418;-75
2023/02/09 04:54:15;;;;;;;35.00;18.00;;;;;;;-7.76;72.23;102293.41;105550;1257;75000;-75
2023/02/09 04:56:43;;;;;;;34.30;18.30;;;;;;;-7.83;72.20;102289.59;105642;1253;69072;-75
2023/02/09 05:02:00;;;;;;;36.30;17.90;;;;;;;-8.01;72.68;102285.49;105612;1253;61387;-74
2023/02/09 05:04:28;;;;;;;31.10;15.20;;;;;;;-7.94;72.49;102287.44;105459;1254;61254;-74
2023/02/09 05:06:56;;;;;;;34.70;18.50;;;;;;;-7.88;72.40;102286.27;105553;1257;73901;-76
2023/02/09 05:09:25;;;;;;;29.80;17.20;;;;;;;-7.86;72.14;102283.71;105737;1253;70928;-75
2023/02/09 05:11:54;;;;;;;36.30;18.80;;;;;;;-7.87;72.30;102278.36;105722;1255;74016;-75
2023/02/09 05:14:22;;;;;;;37.00;20.80;;;;;;;-7.95;72.56;102277.45;105694;1254;60467;-76
2023/02/09 05:16:50;;;;;;;41.60;21.00;;;;;;;-8.07;72.58;102276.31;105672;1253;61337;-76
2023/02/09 05:19:18;;;;;;;43.10;24.40;;;;;;;-8.19;72.71;102276.74;105723;1255;75308;-75
2023/02/09 05:21:46;;;;;;;44.50;25.00;;;;;;;-8.30;73.03;102275.94;105577;1253;71529;-76
2023/02/09 05:24:14;;;;;;;44.70;24.40;;;;;;;-8.39;73.02;102277.41;106197;1254;72633;-73
2023/02/09 05:26:43;;;;;;;36.50;20.60;;;;;;;-8.34;73.14;102279.02;106083;1253;61152;-74
2023/02/09 05:29:11;;;;;;;39.60;20.30;;;;;;;-8.25;72.93;102275.14;106019;1257;61341;-73
2023/02/09 05:31:39;;;;;;;33.00;17.90;;;;;;;-8.18;73.02;102279.66;106124;1258;72817;-73
2023/02/09 05:34:08;;;;;;;39.60;20.70;;;;;;;-8.14;72.82;102273.69;105864;1253;70441;-72
2023/02/09 05:36:36;;;;;;;35.40;19.00;;;;;;;-8.09;72.76;102266.67;105523;1253;72749;-74
2023/02/09 05:39:04;;;;;;;43.20;20.80;;;;;;;-8.07;72.85;102268.40;105688;1253;60559;-74
2023/02/09 05:44:19;;;;;;;39.50;19.80;;;;;;;-8.14;72.79;102268.36;105816;1256;74222;-74
2023/02/09 05:46:47;;;;;;;39.30;21.90;;;;;;;-8.18;72.99;102267.98;105622;1252;70308;-75
2023/02/09 05:49:16;;;;;;;39.00;21.90;;;;;;;-8.22;72.98;102265.36;105672;1253;72578;-74
2023/02/09 05:51:44;;;;;;;40.10;20.50;;;;;;;-8.24;73.25;102265.17;105639;1253;60505;-74
2023/02/09 05:54:12;;;;;;;39.50;21.00;;;;;;;-8.19;73.43;102267.61;105508;1253;60536;-73
2023/02/09 05:56:40;;;;;;;35.50;19.90;;;;;;;-8.04;73.35;102271.19;105239;1253;73047;-72
2023/02/09 05:59:08;;;;;;;35.50;17.40;;;;;;;-7.91;73.16;102268.36;105454;1253;71294;-74
2023/02/09 06:01:36;;;;;;;39.90;20.50;;;;;;;-7.79;72.71;102271.71;105502;1253;72385;-77
2023/02/09 06:04:05;;;;;;;40.50;21.70;;;;;;;-7.70;72.28;102272.29;106213;1254;60622;-73
2023/02/09 06:06:33;;;;;;;41.60;20.30;;;;;;;-7.69;72.10;102266.45;106188;1253;61023;-75
2023/02/09 06:09:02;;;;;;;41.70;22.20;;;;;;;-7.75;71.96;102269.33;106154;1256;74966;-75
2023/02/09 06:11:31;;;;;;;41.10;21.50;;;;;;;-7.80;71.87;102271.55;105929;1253;71693;-73
2023/02/09 06:13:59;;;;;;;43.10;22.50;;;;;;;-7.86;72.31;102268.23;105953;1257;72863;-74
2023/02/09 06:16:27;;;;;;;50.10;23.80;;;;;;;-7.92;72.15;102271.61;106393;1252;61040;-73
2023/02/09 06:18:55;;;;;;;40.40;20.70;;;;;;;-7.97;72.06;102270.20;105651;1253;60550;-75
2023/02/09 06:21:23;;;;;;;42.80;20.70;;;;;;;-7.95;72.37;102271.42;105681;1253;73847;-74
2023/02/09 06:23:52;;;;;;;38.70;19.90;;;;;;;-7.81;72.15;102276.70;105683;1253;70250;-76
2023/02/09 06:26:20;;;;;;;33.70;19.60;;;;;;;-7.67;72.19;102276.26;105836;1254;72295;-79
2023/02/09 06:28:48;;;;;;;41.40;22.70;;;;;;;-7.57;71.88;102273.75;105740;1258;60444;-76
2023/02/09 06:31:17;;;;;;;38.10;19.00;;;;;;;-7.45;72.05;102274.51;106047;1252;61520;-77
2023/02/09 06:33:45;;;;;;;38.70;21.50;;;;;;;-7.42;71.97;102273.14;107339;1253;75136;-77
2023/02/09 06:36:17;;;;;;;41.50;22.30;;;;;;;-7.43;72.24;102272.45;107086;1253;71528;-74
2023/02/09 06:38:45;;;;;;;36.50;20.00;;;;;;;-7.42;72.30;102275.04;106735;1253;70765;-76
2023/02/09 06:41:12;;;;;;;39.50;22.20;;;;;;;-7.37;72.36;102277.65;105950;1253;60415;-76
2023/02/09 06:43:41;;;;;;;35.50;20.10;;;;;;;-7.34;72.39;102277.33;105929;1257;60609;-75
2023/02/09 06:46:11;;;;;;;38.70;21.70;;;;;;;-7.27;72.57;102279.43;106116;1253;73908;-78
2023/02/09 06:48:39;;;;;;;36.90;19.70;;;;;;;-7.20;72.40;102276.71;106325;1253;71296;-78
2023/02/09 06:51:08;;;;;;;37.00;20.60;;;;;;;-7.13;72.70;102278.28;106410;1256;73874;-81
2023/02/09 06:53:37;;;;;;;40.30;21.10;;;;;;;-7.06;72.56;102275.90;107004;1256;61561;-80
2023/02/09 06:56:06;;;;;;;38.30;19.50;;;;;;;-6.95;72.39;102268.88;108585;1252;59832;-82
2023/02/09 06:58:35;;;;;;;37.40;19.20;;;;;;;-6.71;71.87;102268.09;108920;1252;71908;-82
2023/02/09 07:01:07;;;;;;;43.40;20.00;;;;;;;-6.50;71.83;102269.86;106973;1253;70477;-80
2023/02/09 07:03:35;;;;;;;30.40;18.80;;;;;;;-6.32;71.37;102268.67;106106;1256;72691;-79
2023/02/09 07:06:05;;;;;;;32.80;19.90;;;;;;;-6.23;71.19;102269.71;106133;1253;60470;-81
2023/02/09 07:08:34;;;;;;;36.90;20.70;;;;;;;-6.17;71.14;102272.65;106239;1257;59665;-83
2023/02/09 07:11:05;;;;;;;35.80;20.60;;;;;;;-6.10;70.93;102275.23;106003;1256;72539;-81
2023/02/09 07:13:34;;;;;;;41.20;22.40;;;;;;;-6.04;70.80;102276.98;106290;1253;70664;-81
2023/02/09 07:16:04;;;;;;;39.70;22.60;;;;;;;-6.01;70.38;102276.27;105906;1258;71625;-79
2023/02/09 07:18:34;;;;;;;39.50;21.00;;;;;;;-5.96;70.24;102273.85;105693;1253;61620;-75
2023/02/09 07:21:07;;;;;;;39.10;21.80;;;;;;;-5.90;70.17;102275.20;105496;1253;301473;-75
2023/02/09 07:26:40;;;;;;;48.20;26.20;;;;;;;-5.77;70.07;102277.61;102168;1296;601323;-75
2023/02/09 07:29:08;;;;;;;45.80;25.40;;;;;;;-5.75;69.97;102276.05;104961;1266;61416;-71
2023/02/09 07:31:38;;;;;;;40.90;24.80;;;;;;;-5.70;70.05;102276.23;105227;1260;61287;-71
2023/02/09 07:34:07;;;;;;;49.40;28.40;;;;;;;-5.65;70.10;102270.69;105027;1266;73450;-73
2023/02/09 07:36:36;;;;;;;40.00;22.70;;;;;;;-5.58;70.16;102271.02;105246;1260;70662;-72
2023/02/09 07:39:04;;;;;;;39.40;22.50;;;;;;;-5.48;70.05;102266.17;105089;1260;71690;-73
2023/02/09 07:41:32;;;;;;;38.30;21.40;;;;;;;-5.27;70.15;102262.82;105272;1257;155238;-72
2023/02/09 07:44:05;;;;;;;46.10;24.10;;;;;;;-5.03;69.73;102259.27;105289;1257;61471;-72
2023/02/09 07:46:47;;;;;;;50.70;24.70;;;;;;;-4.89;69.35;102258.69;105126;1266;73474;-72
2023/02/09 07:49:16;;;;;;;43.40;24.00;;;;;;;-4.82;69.19;102251.73;105406;1257;69624;-73
2023/02/09 07:51:44;;;;;;;44.90;24.90;;;;;;;-4.77;68.96;102257.59;105310;1263;72220;-73
2023/02/09 07:54:13;;;;;;;46.60;25.70;;;;;;;-4.69;68.98;102260.13;105264;1258;60607;-73
2023/02/09 07:56:41;;;;;;;47.50;25.90;;;;;;;-4.59;68.96;102259.55;105482;1254;60124;-74
2023/02/09 07:59:09;;;;;;;41.40;23.20;;;;;;;-4.43;68.99;102261.88;105841;1254;72044;-72
2023/02/09 08:01:37;;;;;;;43.90;24.20;;;;;;;-4.31;68.54;102259.19;105543;1259;70637;-71
2023/02/09 08:04:06;;;;;;;42.60;23.70;;;;;;;-4.22;67.96;102256.17;105534;1254;73606;-71
2023/02/09 08:06:39;;;;;;;46.80;25.30;;;;;;;-4.16;67.87;102257.69;105555;1256;61408;-72
2023/02/09 08:09:12;;;;;;;47.90;24.80;;;;;;;-4.08;67.87;102259.70;105479;1254;59711;-73
2023/02/09 08:12:01;;;;;;;42.80;26.10;;;;;;;-3.97;67.94;102259.27;105518;1259;73690;-73
2023/02/09 08:14:35;;;;;;;42.70;25.20;;;;;;;-3.84;67.72;102257.77;105600;1257;70087;-71
2023/02/09 08:17:20;;;;;;;51.20;26.60;;;;;;;-3.70;67.72;102256.08;105592;1256;73656;-75
2023/02/09 08:20:02;;;;;;;42.50;24.50;;;;;;;-3.57;67.02;102255.95;106161;1254;61188;-74
2023/02/09 08:22:32;;;;;;;42.80;25.40;;;;;;;-3.49;66.57;102256.73;105911;1254;61198;-73
2023/02/09 08:25:00;;;;;;;44.90;25.90;;;;;;;-3.40;66.84;102254.20;105756;1254;72782;-75
2023/02/09 08:27:29;;;;;;;41.20;24.10;;;;;;;-3.27;66.63;102247.64;106061;1254;69006;-75
2023/02/09 08:29:57;;;;;;;40.30;24.60;;;;;;;-3.16;66.25;102239.70;105916;1256;70137;-76
2023/02/09 08:32:29;;;;;;;40.70;22.70;;;;;;;-3.04;66.18;102238.17;105851;1259;59767;-75
2023/02/09 08:34:57;;;;;;;41.00;24.40;;;;;;;-2.92;65.71;102230.39;105739;1254;59730;-75
2023/02/09 08:37:25;;;;;;;40.50;23.60;;;;;;;-2.83;65.61;102233.20;105914;1256;71967;-74
2023/02/09 08:39:53;;;;;;;43.40;24.40;;;;;;;-2.75;65.30;102236.06;106035;1254;71429;-75
2023/02/09 08:42:21;;;;;;;35.60;22.60;;;;;;;-2.72;64.83;102236.70;105890;1253;72234;-74
2023/02/09 08:44:51;;;;;;;41.50;24.60;;;;;;;-2.69;64.64;102236.66;105835;1256;59710;-74
2023/02/09 08:47:19;;;;;;;42.20;25.20;;;;;;;-2.68;64.56;102235.23;105810;1256;59617;-75
2023/02/09 08:49:49;;;;;;;42.10;24.30;;;;;;;-2.67;64.42;102234.52;105716;1258;74360;-76
2023/02/09 08:52:18;;;;;;;39.50;24.20;;;;;;;-2.61;64.49;102241.55;106160;1256;70556;-75
2023/02/09 08:54:46;;;;;;;44.60;26.10;;;;;;;-2.52;64.42;102234.32;106296;1254;72438;-76
2023/02/09 08:57:14;;;;;;;51.70;27.00;;;;;;;-2.42;64.63;102234.17;106461;1256;59734;-76
2023/02/09 08:59:42;;;;;;;49.60;28.80;;;;;;;-2.33;64.34;102234.38;106123;1254;59999;-75
2023/02/09 09:02:10;;;;;;;47.50;26.20;;;;;;;-2.26;64.31;102232.18;106015;1258;71788;-77
2023/02/09 09:04:38;;;;;;;44.90;24.30;;;;;;;-2.19;64.04;102232.57;106109;1255;69487;-76
2023/02/09 09:07:06;;;;;;;49.90;27.40;;;;;;;-2.10;64.24;102232.27;106213;1258;71690;-76
2023/02/09 09:09:34;;;;;;;44.80;26.00;;;;;;;-1.96;64.00;102221.96;107843;1253;60422;-76
2023/02/09 09:12:02;;;;;;;43.10;27.00;;;;;;;-1.83;63.70;102219.99;108296;1254;59329;-78
2023/02/09 09:14:31;;;;;;;38.30;24.60;;;;;;;-1.70;63.81;102218.70;106273;1256;73228;-78
2023/02/09 09:16:59;;;;;;;39.40;24.80;;;;;;;-1.54;63.40;102213.53;107888;1253;69918;-76
2023/02/09 09:19:28;;;;;;;42.80;24.80;;;;;;;-1.41;62.94;102208.41;108903;1257;70568;-75
2023/02/09 09:21:57;;;;;;;36.10;23.10;;;;;;;-1.27;62.96;102200.66;108669;1254;59568;-76
2023/02/09 09:24:27;;;;;;;41.10;25.70;;;;;;;-1.05;62.69;102193.56;108284;1254;59370;-77
2023/02/09 09:26:55;;;;;;;38.20;24.80;;;;;;;-0.81;62.42;102185.73;105779;1254;73421;-77
2023/02/09 09:29:23;;;;;;;38.20;24.60;;;;;;;-0.60;61.45;102183.86;105998;1256;71810;-76
2023/02/09 09:31:51;;;;;;;36.50;23.70;;;;;;;-0.48;60.96;102181.31;105912;1257;72745;-75
2023/02/09 09:34:21;;;;;;;39.40;23.10;;;;;;;-0.42;60.53;102177.84;105945;1254;59741;-76
2023/02/09 09:36:49;;;;;;;35.50;23.20;;;;;;;-0.34;60.28;102176.62;105799;1255;60233;-74
2023/02/09 09:39:17;;;;;;;37.40;24.80;;;;;;;-0.21;60.22;102177.14;106069;1256;72830;-76
2023/02/09 09:41:56;;;;;;;37.10;22.00;;;;;;;-0.06;59.58;102172.41;105885;1254;70630;-75
2023/02/09 09:44:32;;;;;;;37.10;23.20;;;;;;;0.11;59.67;102170.20;105890;1254;73961;-73
2023/02/09 09:47:03;;;;;;;34.10;21.80;;;;;;;0.34;59.46;102170.11;106121;1253;59735;-75
2023/02/09 09:49:31;;;;;;;37.20;24.40;;;;;;;0.64;59.07;102162.80;105880;1255;60231;-75
2023/02/09 09:52:06;;;;;;;35.80;23.90;;;;;;;0.92;58.50;102153.59;105757;1259;74230;-75
2023/02/09 09:54:34;;;;;;;38.80;24.90;;;;;;;1.26;57.56;102148.02;106546;1259;70355;-74
2023/02/09 09:57:02;;;;;;;39.30;25.60;;;;;;;1.55;56.54;102145.14;105962;1254;72917;-78
2023/02/09 09:59:33;;;;;;;37.90;25.20;;;;;;;1.78;55.71;102145.60;106010;1261;59637;-77
2023/02/09 10:02:13;;;;;;;40.60;27.80;;;;;;;1.97;55.19;102139.52;106021;1255;60410;-74
2023/02/09 10:04:41;;;;;;;33.50;22.20;;;;;;;2.24;55.42;102136.61;106084;1254;71440;-78
2023/02/09 10:07:17;;;;;;;36.90;23.20;;;;;;;2.65;55.25;102129.00;107215;1258;70573;-79
2023/02/09 10:09:57;;;;;;;35.00;23.20;;;;;;;3.11;53.79;102129.29;107143;1257;73167;-78
2023/02/09 10:12:30;;;;;;;35.40;26.10;;;;;;;3.38;51.84;102124.19;105928;1254;59739;-78
2023/02/09 10:15:16;;;;;;;40.90;25.90;;;;;;;3.44;50.95;102120.06;105641;1259;61588;-75
2023/02/09 10:17:43;;;;;;;;;;;;;;;3.44;51.14;102120.41;105827;1260;74073;-76
2023/02/09 10:20:12;;;;;;;34.90;23.40;;;;;;;3.44;50.62;102117.81;105929;1254;70671;-75
2023/02/09 10:22:44;;;;;;;28.90;20.90;;;;;;;3.51;51.12;102110.84;105848;1254;72927;-75
2023/02/09 10:25:35;;;;;;;32.70;22.60;;;;;;;3.95;52.14;102100.54;105628;1260;60933;-76
2023/02/09 10:28:05;;;;;;;33.50;23.50;;;;;;;4.70;50.49;102089.94;105799;1260;59646;-75
2023/02/09 10:30:34;;;;;;;38.30;28.50;;;;;;;5.29;49.26;102086.38;105982;1254;72088;-76
2023/02/09 10:33:02;;;;;;;35.20;25.90;;;;;;;5.73;47.21;102084.33;106001;1254;69768;-77
2023/02/09 10:35:39;;;;;;;32.90;24.60;;;;;;;6.00;46.43;102081.17;105952;1264;72949;-78
2023/02/09 10:38:14;;;;;;;29.30;22.20;;;;;;;6.23;45.55;102076.47;106394;1253;59746;-77
2023/02/09 10:40:43;;;;;;;29.70;23.60;;;;;;;6.38;44.92;102073.88;106180;1254;59759;-77
2023/02/09 10:43:20;;;;;;;28.90;23.40;;;;;;;6.55;45.59;102075.98;105752;1254;71902;-76
2023/02/09 10:45:53;;;;;;;30.40;22.00;;;;;;;7.20;47.68;102073.13;105804;1259;71228;-77
2023/02/09 10:48:23;;;;;;;27.10;21.80;;;;;;;8.21;46.33;102065.52;106018;1254;73601;-79
2023/02/09 10:50:54;;;;;;;25.80;20.60;;;;;;;9.13;44.77;102064.55;105761;1254;60667;-76
2023/02/09 10:53:28;;;;;;;25.00;21.40;;;;;;;9.81;41.79;102061.05;106013;1257;59843;-76
2023/02/09 10:56:06;;;;;;;26.50;20.80;;;;;;;10.07;42.51;102056.20;108307;1254;72700;-78
2023/02/09 10:58:35;;;;;;;25.20;21.70;;;;;;;10.62;42.04;102057.13;106615;1259;70280;-76
2023/02/09 11:01:12;;;;;;;25.80;20.80;;;;;;;10.91;38.76;102056.22;105906;1254;72903;-79
2023/02/09 11:03:58;;;;;;;27.90;20.90;;;;;;;10.60;38.27;102052.80;105971;1254;59756;-78
2023/02/09 11:06:27;;;;;;;26.50;20.70;;;;;;;10.15;38.45;102042.34;106080;1258;59987;-77
2023/02/09 11:08:58;;;;;;;24.30;18.80;;;;;;;9.96;39.08;102036.79;105989;1259;72546;-78
2023/02/09 11:11:32;;;;;;;21.10;18.90;;;;;;;9.97;38.07;102036.56;106142;1256;69668;-76
2023/02/09 11:14:00;;;;;;;22.60;18.90;;;;;;;9.93;38.34;102037.36;105907;1260;74389;-76
2023/02/09 11:16:29;;;;;;;24.60;18.80;;;;;;;10.05;39.31;102033.49;105840;1254;61139;-77
2023/02/09 11:18:59;;;;;;;22.80;19.50;;;;;;;10.37;38.46;102031.94;106335;1255;60599;-75
2023/02/09 11:21:34;;;;;;;27.10;20.50;;;;;;;10.58;38.34;102027.97;105781;1260;75019;-77
2023/02/09 11:24:19;;;;;;;28.30;20.00;;;;;;;10.78;38.70;102021.91;106023;1254;69466;-78
2023/02/09 11:27:03;;;;;;;22.40;19.70;;;;;;;11.10;38.81;102021.13;105749;1254;72013;-80
2023/02/09 11:29:36;;;;;;;24.60;19.20;;;;;;;11.50;38.29;102014.89;105854;1254;61508;-81
2023/02/09 11:32:09;;;;;;;;;;;;;;;11.92;38.52;102008.59;107214;1254;59708;-78
2023/02/09 11:34:59;;;;;;;21.60;17.40;;;;;;;12.43;38.72;102000.11;106217;1254;71235;-81